Rich Lake, Canada
Current Conditions -  °F | °C
As of 1:00 PM on Friday 21 Nov 2014 (Local Time) from CYOD Reporting Station
Overcast Overcast  
Wind Chill: 28°   Ceiling: 2000
Heat Index: 34°   Visibility: 15mi
Dew Point: 30°   Wind: 7mph
Humidity: 87%   Direction: 10°N
Pressure: 29.54"   Gusts: NA
Location:  54.51°N, 111.62°W
Report Text: CYOD 212000Z 01006KT 15SM BKN020 OVC050 01/M01 A2954 RMK SC6SC2SLP029
Loading
Personal Weather Stations






























Interactive Weather Map New forecast layout! Learn more

10-Day Weather Forecast

Advertisements
Track Severe Weather on mobile